Portada
METAR-TAF:

METAR-TAF

Aeroports :

Barkley Regional Airport

Paducah, Kentucky, Estats Units d'Amèrica

latitud: 37-03-23N, longitud: 088-46-26W, altitud: 125 m

Observació

L'informe es va fer fa 1 hora i 9 minuts, a les 10:53 UTC
Vent calma
Temperatura 19°C
Humitat 88%
Pressió 1016 hPa
Visibilitat: 16.1 km
Cel clar

METAR: KPAH 151053Z 00000KT 10SM CLR 19/17 A3001 RMK AO2 SLP157 T01890167

Hora: 07:02 (12:02 UTC)

Pronòstic

L'informe es va fer fa 42 minuts, a les 11:20 UTC
Pronòstic vàlid del 15 a les 12 UTC al 16 a les 12 UTC
Vent 3 kt amb direcció variable
Visibilitat: 10 km
Cel clar
A partir de les 15 a les 1400 UTC
Vent 6 kt del Est
Visibilitat: 10 km
Escasses núvols a una alçada de 5000 ft
A partir de les 16 a les 0200 UTC
Vent 3 kt del Est
Visibilitat: 10 km
Escasses núvols a una alçada de 25000 ft

TAF: KPAH 151120Z 1512/1612 VRB03KT P6SM SKC FM151400 08006KT P6SM FEW050 FM160200 09003KT P6SM FEW250

Observacions i pronòstics meteorològics de més de 4000 aeroports (METAR i TAF).

Les estacions disponibles són els punts grocs i vermells al mapa.

Posi el ratolí al punt desitjat per veure el nom de l'estació.

Feu clic per veure les observacions i els pronòstics meteorològics.

Per canviar el mapa: feu clic els botons verds amb una creu de color negre per apropar; al botó verd amb un guió per allunyar la imatge; o en les fletxes verdes per a mapes adjacents.


METAR-TAF: